Time;durP1;ratioP1;P1;durP2;ratioP2;P2;SDS_P1;SDS_P2;PMS_P1;PMS_P2;Temp;Humidity;BMP_temperature;BMP_pressure;BME280_temperature;BME280_humidity;BME280_pressure;Samples;Min_cycle;Max_cycle;Signal;HPM_P1;HPM_P2
2022/11/17 00:02:05;;;;;;;23.70;14.18;;;8.60;99.90;;;;;;4957972;28;20058;-69
2022/11/17 00:04:31;;;;;;;28.58;16.55;;;8.60;99.90;;;;;;4957569;28;20133;-69
2022/11/17 00:06:57;;;;;;;27.30;16.67;;;8.60;99.90;;;;;;4957765;28;20042;-68
2022/11/17 00:09:23;;;;;;;27.08;15.82;;;8.60;99.90;;;;;;4974721;28;20086;-69
2022/11/17 00:14:39;;;;;;;23.42;14.93;;;8.70;99.90;;;;;;4957178;28;20047;-69
2022/11/17 00:17:11;;;;;;;26.55;16.25;;;8.70;99.90;;;;;;4973086;28;20050;-68
2022/11/17 00:22:22;;;;;;;25.83;15.32;;;8.70;99.90;;;;;;4956212;28;20137;-69
2022/11/17 00:24:48;;;;;;;24.20;15.30;;;8.70;99.90;;;;;;4957279;28;20101;-69
2022/11/17 00:27:16;;;;;;;22.70;16.08;;;8.70;99.90;;;;;;4957305;28;20047;-70
2022/11/17 00:29:42;;;;;;;26.10;16.20;;;8.70;99.90;;;;;;4974492;28;20050;-70
2022/11/17 00:34:56;;;;;;;23.65;15.40;;;8.70;99.90;;;;;;4957290;28;20441;-70
2022/11/17 00:37:22;;;;;;;23.65;14.25;;;8.80;99.90;;;;;;4957253;28;20049;-69
2022/11/17 00:39:48;;;;;;;21.77;14.02;;;8.80;99.90;;;;;;4957128;28;20094;-70
2022/11/17 00:42:14;;;;;;;25.15;15.65;;;8.80;99.90;;;;;;4940947;28;20034;-69
2022/11/17 00:44:39;;;;;;;24.65;15.75;;;8.80;99.90;;;;;;4956950;28;20042;-69
2022/11/17 00:47:05;;;;;;;24.05;15.63;;;8.80;99.90;;;;;;4957171;28;20038;-70
2022/11/17 00:49:31;;;;;;;23.58;14.15;;;8.90;99.90;;;;;;4974361;28;20086;-69
2022/11/17 00:51:57;;;;;;;25.63;14.55;;;8.90;99.90;;;;;;4954952;28;20042;-70
2022/11/17 00:54:25;;;;;;;22.15;15.15;;;8.90;99.90;;;;;;4974188;28;20046;-70
2022/11/17 00:56:51;;;;;;;22.50;15.40;;;9.00;99.90;;;;;;4974055;28;20524;-69
2022/11/17 00:59:17;;;;;;;24.65;15.50;;;8.90;99.90;;;;;;4956903;28;20050;-70
2022/11/17 01:01:44;;;;;;;22.45;13.60;;;9.00;99.90;;;;;;4956740;28;20042;-71
2022/11/17 01:04:12;;;;;;;25.17;15.70;;;9.00;99.90;;;;;;4957001;28;20050;-70
2022/11/17 01:06:41;;;;;;;27.08;15.60;;;9.00;99.90;;;;;;4974191;28;20035;-69
2022/11/17 01:09:13;;;;;;;22.08;15.13;;;9.00;99.90;;;;;;4956670;28;20047;-69
2022/11/17 01:11:39;;;;;;;23.30;13.40;;;9.00;99.90;;;;;;4956818;28;20398;-69
2022/11/17 01:14:05;;;;;;;18.77;13.45;;;9.00;99.90;;;;;;4974183;28;20039;-70
2022/11/17 01:16:31;;;;;;;17.45;12.13;;;9.00;99.90;;;;;;4956732;28;20046;-70
2022/11/17 01:19:00;;;;;;;21.92;14.10;;;9.00;99.90;;;;;;4973927;28;20039;-70
2022/11/17 01:21:27;;;;;;;20.15;13.93;;;9.00;99.90;;;;;;4954477;28;20074;-70
2022/11/17 01:23:55;;;;;;;22.42;14.07;;;9.00;99.90;;;;;;4956446;28;20050;-70
2022/11/17 01:26:27;;;;;;;24.73;14.48;;;9.10;99.90;;;;;;4956802;28;20401;-70
2022/11/17 01:28:53;;;;;;;20.98;13.65;;;9.10;99.90;;;;;;4973975;28;20117;-70
2022/11/17 01:31:21;;;;;;;24.30;14.32;;;9.00;99.90;;;;;;4975063;28;20442;-69
2022/11/17 01:33:47;;;;;;;20.67;13.75;;;9.10;99.90;;;;;;4944408;28;20047;-70
2022/11/17 01:36:17;;;;;;;19.60;14.45;;;9.10;99.90;;;;;;4944176;28;20050;-69
2022/11/17 01:38:43;;;;;;;19.67;13.63;;;9.10;99.90;;;;;;4960336;28;20540;-70
2022/11/17 01:41:32;;;;;;;22.45;13.35;;;9.10;99.90;;;;;;4977855;28;20281;-70
2022/11/17 01:44:18;;;;;;;22.48;14.30;;;9.10;99.90;;;;;;4977575;28;20581;-70
2022/11/17 01:46:44;;;;;;;20.80;12.73;;;9.10;99.90;;;;;;4960004;28;20049;-68
2022/11/17 01:49:24;;;;;;;22.85;13.63;;;9.00;99.90;;;;;;4944032;28;20118;-69
2022/11/17 01:52:03;;;;;;;23.95;14.68;;;9.00;99.90;;;;;;4975598;28;20119;-69
2022/11/17 01:54:32;;;;;;;20.43;14.13;;;8.90;99.90;;;;;;4977476;28;20043;-70
2022/11/17 01:57:02;;;;;;;24.75;14.55;;;8.90;99.90;;;;;;4977276;28;20042;-69
2022/11/17 01:59:38;;;;;;;23.33;13.70;;;8.90;99.90;;;;;;4959994;28;20073;-69
2022/11/17 02:02:04;;;;;;;21.88;13.77;;;8.80;99.90;;;;;;4977195;28;20046;-69
2022/11/17 02:04:32;;;;;;;18.42;13.43;;;8.80;99.90;;;;;;4959867;28;20101;-70
2022/11/17 02:07:27;;;;;;;21.48;14.23;;;8.80;99.90;;;;;;4960035;28;20054;-70
2022/11/17 02:09:54;;;;;;;21.05;14.38;;;8.80;99.90;;;;;;4943584;28;20050;-69
2022/11/17 02:12:23;;;;;;;25.20;14.65;;;8.80;99.90;;;;;;4977068;28;20493;-69
2022/11/17 02:14:49;;;;;;;20.85;14.25;;;8.80;99.90;;;;;;4959670;28;20047;-69
2022/11/17 02:17:16;;;;;;;22.88;13.88;;;8.70;99.90;;;;;;4959938;28;20421;-69
2022/11/17 02:19:44;;;;;;;23.27;14.82;;;8.70;99.90;;;;;;4959686;28;20652;-69
2022/11/17 02:22:28;;;;;;;22.90;14.93;;;8.70;99.90;;;;;;4957451;28;20134;-68
2022/11/17 02:25:21;;;;;;;24.55;15.10;;;8.60;99.90;;;;;;4976998;28;20039;-69
2022/11/17 02:27:50;;;;;;;23.63;15.50;;;8.60;99.90;;;;;;4976757;28;20125;-70
2022/11/17 02:30:21;;;;;;;23.02;14.88;;;8.60;99.90;;;;;;4959465;28;20050;-69
2022/11/17 02:32:55;;;;;;;23.00;14.75;;;8.60;99.90;;;;;;4976663;28;20056;-70
2022/11/17 02:36:01;;;;;;;23.67;14.35;;;8.60;99.90;;;;;;4943239;28;20046;-70
2022/11/17 02:38:34;;;;;;;26.05;16.13;;;8.50;99.90;;;;;;4943303;28;20039;-70
2022/11/17 02:41:06;;;;;;;25.67;16.10;;;8.50;99.90;;;;;;4976656;28;20042;-69
2022/11/17 02:44:03;;;;;;;27.08;15.20;;;8.50;99.90;;;;;;4975501;28;20042;-69
2022/11/17 02:46:37;;;;;;;24.30;15.13;;;8.50;99.90;;;;;;4976587;28;20043;-69
2022/11/17 02:49:21;;;;;;;28.77;16.85;;;8.50;99.90;;;;;;4959304;28;20046;-68
2022/11/17 02:51:53;;;;;;;27.10;16.73;;;8.50;99.90;;;;;;4974278;28;20051;-68
2022/11/17 02:54:21;;;;;;;24.00;16.52;;;8.50;99.90;;;;;;4976387;28;20101;-68
2022/11/17 02:56:47;;;;;;;24.85;15.73;;;8.50;99.90;;;;;;4976257;28;20066;-68
2022/11/17 02:59:18;;;;;;;22.45;14.60;;;8.50;99.90;;;;;;4958803;28;20039;-69
2022/11/17 03:01:50;;;;;;;24.77;15.02;;;8.50;99.90;;;;;;4959013;28;20093;-69
2022/11/17 03:04:27;;;;;;;27.45;15.60;;;8.50;99.90;;;;;;4976147;28;20039;-67
2022/11/17 03:07:08;;;;;;;25.98;16.67;;;8.40;99.90;;;;;;4958663;28;20070;-68
2022/11/17 03:09:58;;;;;;;21.83;15.02;;;8.40;99.90;;;;;;4975853;28;20055;-68
2022/11/17 03:12:54;;;;;;;23.00;14.65;;;8.40;99.90;;;;;;4958588;28;20043;-70
2022/11/17 03:15:48;;;;;;;22.23;14.27;;;8.50;99.90;;;;;;4975735;28;20043;-68
2022/11/17 03:18:43;;;;;;;18.55;12.27;;;8.50;99.90;;;;;;4975897;28;20039;-70
2022/11/17 03:21:20;;;;;;;23.75;15.48;;;8.50;99.90;;;;;;4973965;28;20039;-68
2022/11/17 03:23:50;;;;;;;23.80;14.00;;;8.50;99.90;;;;;;4958480;28;20049;-69
2022/11/17 03:26:26;;;;;;;26.13;15.20;;;8.50;99.90;;;;;;4975610;28;20085;-69
2022/11/17 03:28:53;;;;;;;22.50;12.95;;;8.50;99.90;;;;;;4958611;28;20082;-69
2022/11/17 03:31:21;;;;;;;24.05;14.63;;;8.50;99.90;;;;;;4975560;28;20050;-69
2022/11/17 03:33:49;;;;;;;19.70;13.15;;;8.50;99.90;;;;;;4975602;28;20089;-69
2022/11/17 03:36:23;;;;;;;23.35;14.25;;;8.50;99.90;;;;;;4975470;28;20085;-68
2022/11/17 03:38:57;;;;;;;22.67;13.27;;;8.60;99.90;;;;;;4975534;28;20389;-68
2022/11/17 03:41:24;;;;;;;21.85;13.43;;;8.60;99.90;;;;;;4975377;28;20113;-69
2022/11/17 03:43:52;;;;;;;22.20;14.70;;;8.60;99.90;;;;;;4958009;28;20051;-68
2022/11/17 03:46:21;;;;;;;22.45;15.18;;;8.60;99.90;;;;;;4975515;28;20046;-68
2022/11/17 03:49:19;;;;;;;19.02;12.75;;;8.50;99.90;;;;;;4957991;28;20130;-69
2022/11/17 03:51:45;;;;;;;17.55;12.18;;;8.50;99.90;;;;;;4973074;28;20043;-68
2022/11/17 03:54:12;;;;;;;21.90;12.80;;;8.50;99.90;;;;;;4957454;28;20053;-68
2022/11/17 03:57:09;;;;;;;21.02;13.48;;;8.50;99.90;;;;;;4957787;28;20104;-69
2022/11/17 03:59:59;;;;;;;15.82;9.80;;;8.50;99.90;;;;;;4975233;28;20053;-69
2022/11/17 04:02:26;;;;;;;18.77;11.82;;;8.50;99.90;;;;;;4957614;28;20055;-68
2022/11/17 04:05:04;;;;;;;19.42;11.93;;;8.50;99.90;;;;;;4957605;28;20047;-69
2022/11/17 04:07:39;;;;;;;19.65;11.18;;;8.50;99.90;;;;;;4975034;28;20492;-69
2022/11/17 04:10:05;;;;;;;18.65;12.60;;;8.50;99.90;;;;;;4957465;28;20134;-68
2022/11/17 04:18:01;;;;;;;16.17;11.65;;;8.60;99.90;;;;;;4957415;28;20477;-69
2022/11/17 04:20:34;;;;;;;15.45;11.25;;;8.60;99.90;;;;;;4955397;28;20231;-69
2022/11/17 04:23:07;;;;;;;16.85;11.63;;;8.60;99.90;;;;;;4974725;28;20397;-68
2022/11/17 04:28:37;;;;;;;16.48;12.40;;;8.60;99.90;;;;;;4974723;28;20050;-69
2022/11/17 04:31:18;;;;;;;22.30;11.50;;;8.60;99.90;;;;;;4955197;28;20057;-69
2022/11/17 04:33:46;;;;;;;16.65;11.32;;;8.60;99.90;;;;;;4955264;29;20074;-68
2022/11/17 04:36:14;;;;;;;15.40;10.38;;;8.60;99.90;;;;;;4953869;29;20098;-68
2022/11/17 04:38:46;;;;;;;18.65;11.75;;;8.60;99.90;;;;;;4953776;29;20099;-69
2022/11/17 04:43:59;;;;;;;19.20;12.32;;;8.50;99.90;;;;;;4953785;29;20051;-70
2022/11/17 04:46:26;;;;;;;17.27;11.55;;;8.50;99.90;;;;;;4955001;29;20126;-69
2022/11/17 04:48:53;;;;;;;17.73;11.40;;;8.50;99.90;;;;;;4954011;29;20047;-69
2022/11/17 04:51:19;;;;;;;21.08;12.90;;;8.50;99.90;;;;;;4951829;29;20043;-68
2022/11/17 04:53:47;;;;;;;16.90;11.55;;;8.60;99.90;;;;;;4953790;29;20054;-69
2022/11/17 04:56:13;;;;;;;17.13;10.52;;;8.60;99.90;;;;;;4937601;29;20106;-70
2022/11/17 04:58:39;;;;;;;17.10;11.13;;;8.60;99.90;;;;;;4955005;29;20039;-68
2022/11/17 05:01:11;;;;;;;20.50;12.35;;;8.60;99.90;;;;;;4953535;29;20074;-68
2022/11/17 05:03:52;;;;;;;19.52;12.00;;;8.60;99.90;;;;;;4955006;29;20041;-69
2022/11/17 05:06:20;;;;;;;18.65;10.98;;;8.60;99.90;;;;;;4954091;28;20581;-70
2022/11/17 05:08:46;;;;;;;15.48;10.32;;;8.60;99.90;;;;;;4954684;29;20062;-69
2022/11/17 05:13:58;;;;;;;18.23;11.32;;;8.60;99.90;;;;;;4953739;29;20141;-69
2022/11/17 05:19:14;;;;;;;15.60;10.88;;;8.60;99.90;;;;;;4956792;28;20129;-68
2022/11/17 05:21:40;;;;;;;14.68;9.82;;;8.50;99.90;;;;;;4954677;28;20046;-68
2022/11/17 05:24:06;;;;;;;17.08;10.32;;;8.50;99.90;;;;;;4973815;28;20043;-68
2022/11/17 05:26:34;;;;;;;14.88;9.90;;;8.60;99.90;;;;;;4956848;28;20130;-68
2022/11/17 05:29:02;;;;;;;13.73;9.00;;;8.50;99.90;;;;;;4973818;28;20465;-69
2022/11/17 05:31:28;;;;;;;15.88;9.40;;;8.50;99.90;;;;;;4956748;28;20047;-68
2022/11/17 05:33:55;;;;;;;15.80;9.02;;;8.50;99.90;;;;;;4973989;28;20086;-69
2022/11/17 05:36:22;;;;;;;14.80;8.40;;;8.50;99.90;;;;;;4956429;28;20404;-69
2022/11/17 05:38:48;;;;;;;11.52;8.25;;;8.50;99.90;;;;;;4973748;28;20043;-69
2022/11/17 05:41:16;;;;;;;12.10;8.15;;;8.50;99.90;;;;;;4973607;28;20528;-68
2022/11/17 05:43:42;;;;;;;10.95;7.45;;;8.50;99.90;;;;;;4956373;28;20498;-69
2022/11/17 05:46:08;;;;;;;12.18;7.45;;;8.40;99.90;;;;;;4956655;28;20125;-69
2022/11/17 05:48:34;;;;;;;11.10;8.40;;;8.40;99.90;;;;;;4973770;28;20536;-68
2022/11/17 05:51:00;;;;;;;12.75;8.57;;;8.40;99.90;;;;;;4954339;28;20058;-69
2022/11/17 05:53:27;;;;;;;12.00;8.38;;;8.40;99.90;;;;;;4973902;28;20050;-69
2022/11/17 05:56:23;;;;;;;11.18;8.13;;;8.40;99.90;;;;;;4973594;28;20109;-69
2022/11/17 05:58:54;;;;;;;10.50;8.00;;;8.40;99.90;;;;;;4973778;28;20046;-69
2022/11/17 06:01:21;;;;;;;9.73;7.35;;;8.30;99.90;;;;;;4940546;28;20042;-68
2022/11/17 06:03:52;;;;;;;9.93;7.40;;;8.30;99.90;;;;;;4956476;28;20039;-70
2022/11/17 06:06:18;;;;;;;9.35;6.82;;;8.30;99.90;;;;;;4973771;28;20117;-68
2022/11/17 06:08:45;;;;;;;8.65;7.35;;;8.30;99.90;;;;;;4973521;28;20058;-69
2022/11/17 06:11:11;;;;;;;11.18;7.30;;;8.30;99.90;;;;;;4973500;28;20043;-69
2022/11/17 06:13:37;;;;;;;9.98;7.50;;;8.20;99.90;;;;;;4956500;28;20508;-69
2022/11/17 06:16:06;;;;;;;10.20;7.20;;;8.20;99.90;;;;;;4973256;28;20047;-69
2022/11/17 06:18:40;;;;;;;9.02;6.40;;;8.20;99.90;;;;;;4976384;28;20539;-70
2022/11/17 06:21:08;;;;;;;9.57;7.60;;;8.10;99.90;;;;;;4957545;28;20041;-68
2022/11/17 06:23:36;;;;;;;12.05;8.18;;;8.10;99.90;;;;;;4959659;28;20043;-68
2022/11/17 06:26:06;;;;;;;10.63;7.47;;;8.00;99.90;;;;;;4976953;28;20078;-68
2022/11/17 06:28:33;;;;;;;10.02;6.57;;;7.90;99.90;;;;;;4959425;28;20046;-69
2022/11/17 06:31:00;;;;;;;12.48;7.63;;;7.90;99.90;;;;;;4976889;28;20051;-69
2022/11/17 06:33:29;;;;;;;10.15;6.97;;;7.90;99.90;;;;;;4959420;28;20047;-68
2022/11/17 06:35:55;;;;;;;9.23;6.82;;;7.80;99.90;;;;;;4976840;28;20121;-67
2022/11/17 06:38:20;;;;;;;10.88;6.93;;;7.80;99.90;;;;;;4959430;28;20579;-69
2022/11/17 06:40:46;;;;;;;10.07;6.95;;;7.80;99.90;;;;;;4976530;28;20401;-68
2022/11/17 06:43:12;;;;;;;11.55;8.27;;;7.70;99.90;;;;;;4959143;28;20079;-68
2022/11/17 06:45:41;;;;;;;8.50;6.63;;;7.80;99.90;;;;;;4959220;28;20050;-70
2022/11/17 06:48:08;;;;;;;12.85;8.25;;;7.80;99.90;;;;;;4959239;28;20480;-68
2022/11/17 06:50:34;;;;;;;11.43;7.78;;;7.80;99.90;;;;;;4974485;28;20038;-68
2022/11/17 06:53:04;;;;;;;11.63;7.90;;;7.80;99.90;;;;;;4976396;28;20061;-68
2022/11/17 06:55:30;;;;;;;;;;;7.70;99.90;;;;;;4976777;28;20117;-69
2022/11/17 06:58:05;;;;;;;9.82;7.00;;;7.70;99.90;;;;;;4991183;28;20447;-69
2022/11/17 07:00:32;;;;;;;9.65;7.22;;;7.70;99.90;;;;;;4958990;28;20043;-69
2022/11/17 07:03:08;;;;;;;8.93;7.45;;;7.70;99.90;;;;;;4976360;28;20031;-68
2022/11/17 07:05:36;;;;;;;8.25;5.78;;;7.70;99.90;;;;;;4942799;28;20085;-68
2022/11/17 07:08:04;;;;;;;9.23;7.53;;;7.70;99.90;;;;;;4976051;28;20446;-67
2022/11/17 07:10:32;;;;;;;9.20;6.95;;;7.70;99.90;;;;;;4976101;28;20062;-69
2022/11/17 07:12:58;;;;;;;9.13;7.30;;;7.80;99.90;;;;;;4958720;28;20054;-67
2022/11/17 07:15:25;;;;;;;10.82;7.40;;;7.80;99.90;;;;;;4975837;28;20489;-68
2022/11/17 07:17:51;;;;;;;9.95;7.18;;;7.80;99.90;;;;;;4958502;28;20126;-69
2022/11/17 07:20:17;;;;;;;9.90;7.47;;;7.70;99.90;;;;;;4956527;28;20046;-68
2022/11/17 07:22:43;;;;;;;10.85;7.40;;;7.80;99.90;;;;;;4975842;28;20042;-68
2022/11/17 07:25:10;;;;;;;9.40;7.13;;;7.80;99.90;;;;;;4958688;28;20042;-68
2022/11/17 07:27:36;;;;;;;9.80;7.43;;;7.80;99.90;;;;;;4975923;28;20081;-67
2022/11/17 07:30:06;;;;;;;10.68;7.80;;;7.80;99.90;;;;;;4941683;28;20050;-68
2022/11/17 07:32:33;;;;;;;10.13;7.50;;;7.80;99.90;;;;;;4958684;28;20049;-68
2022/11/17 07:35:00;;;;;;;8.93;7.35;;;7.80;99.90;;;;;;4958303;28;20051;-68
2022/11/17 07:37:27;;;;;;;10.70;7.20;;;7.80;99.90;;;;;;4975400;28;20125;-68
2022/11/17 07:39:53;;;;;;;10.25;7.88;;;7.80;99.90;;;;;;4958416;28;20185;-69
2022/11/17 07:42:18;;;;;;;8.30;6.70;;;7.80;99.90;;;;;;4975506;28;20114;-68
2022/11/17 07:44:44;;;;;;;9.93;7.90;;;7.80;99.90;;;;;;4975316;28;20039;-68
2022/11/17 07:47:11;;;;;;;11.82;8.05;;;7.80;99.90;;;;;;4942024;28;20049;-68
2022/11/17 07:49:37;;;;;;;11.82;8.88;;;7.80;99.90;;;;;;4975219;28;20070;-69
2022/11/17 07:52:03;;;;;;;12.02;8.75;;;7.80;99.90;;;;;;4973096;28;20082;-68
2022/11/17 07:54:28;;;;;;;11.20;8.43;;;7.80;99.90;;;;;;4957798;28;20039;-69
2022/11/17 07:56:54;;;;;;;11.40;8.27;;;7.80;99.90;;;;;;4975360;28;20082;-70
2022/11/17 07:59:20;;;;;;;10.73;8.63;;;7.80;99.90;;;;;;4957815;28;20038;-68
2022/11/17 08:01:46;;;;;;;8.95;6.35;;;7.80;99.90;;;;;;4957798;28;20047;-67
2022/11/17 08:04:12;;;;;;;9.52;7.50;;;7.70;99.90;;;;;;4937857;29;20051;-68
2022/11/17 08:06:37;;;;;;;12.48;8.07;;;7.80;99.90;;;;;;4972339;28;20436;-66
2022/11/17 08:09:05;;;;;;;10.20;7.20;;;7.70;99.90;;;;;;4957485;28;20523;-67
2022/11/17 08:11:30;;;;;;;10.57;8.18;;;7.70;99.90;;;;;;4975040;28;20047;-70
2022/11/17 08:13:57;;;;;;;11.07;7.93;;;7.70;99.90;;;;;;4974949;28;20456;-69
2022/11/17 08:16:29;;;;;;;12.05;8.43;;;7.70;99.90;;;;;;4957335;28;20089;-68
2022/11/17 08:18:57;;;;;;;10.52;7.50;;;7.70;99.90;;;;;;4974775;28;20364;-69
2022/11/17 08:21:23;;;;;;;9.32;7.25;;;7.70;99.90;;;;;;4972498;28;20070;-68
2022/11/17 08:23:54;;;;;;;9.80;6.75;;;7.60;99.90;;;;;;4957447;28;20077;-69
2022/11/17 08:26:20;;;;;;;8.50;7.00;;;7.60;99.90;;;;;;4957641;28;20082;-70
2022/11/17 08:28:47;;;;;;;11.25;7.35;;;7.60;99.90;;;;;;4974749;28;20097;-69
2022/11/17 08:31:12;;;;;;;8.55;6.72;;;7.60;99.90;;;;;;4957247;28;20082;-69
2022/11/17 08:33:38;;;;;;;8.07;6.72;;;7.60;99.90;;;;;;4957162;28;20082;-68
2022/11/17 08:36:06;;;;;;;10.50;7.45;;;7.70;99.90;;;;;;4957177;28;20035;-68
2022/11/17 08:38:32;;;;;;;9.52;7.18;;;7.70;99.90;;;;;;4957177;28;20522;-68
2022/11/17 08:41:02;;;;;;;10.90;8.40;;;7.70;99.90;;;;;;4973495;28;20520;-68
2022/11/17 08:43:28;;;;;;;10.48;7.55;;;7.70;99.90;;;;;;4974367;28;20038;-69
2022/11/17 08:45:54;;;;;;;11.23;7.00;;;7.70;99.90;;;;;;4957052;28;20045;-69
2022/11/17 08:48:20;;;;;;;13.13;8.43;;;7.70;99.90;;;;;;4974236;28;20047;-69
2022/11/17 08:50:46;;;;;;;12.05;8.43;;;7.70;99.90;;;;;;4955156;28;20043;-69
2022/11/17 08:53:13;;;;;;;12.10;7.32;;;7.70;99.90;;;;;;4974492;28;20043;-69
2022/11/17 08:55:39;;;;;;;8.88;6.68;;;7.70;99.90;;;;;;4955429;28;20051;-69
2022/11/17 08:58:05;;;;;;;9.98;7.47;;;7.70;99.90;;;;;;4973888;28;20035;-70
2022/11/17 09:00:31;;;;;;;9.52;6.95;;;7.70;99.90;;;;;;4940573;28;20106;-70
2022/11/17 09:02:56;;;;;;;13.40;8.95;;;7.70;99.90;;;;;;4973993;28;20122;-68
2022/11/17 09:05:23;;;;;;;9.00;6.47;;;7.70;99.90;;;;;;4973000;28;20144;-70
2022/11/17 09:07:49;;;;;;;10.70;6.80;;;7.80;99.90;;;;;;4940712;28;20053;-70
2022/11/17 09:10:16;;;;;;;10.40;7.07;;;7.80;99.90;;;;;;4988757;28;20042;-71
2022/11/17 09:12:42;;;;;;;11.23;7.75;;;7.90;99.90;;;;;;4973876;28;20043;-67
2022/11/17 09:15:08;;;;;;;10.85;7.55;;;7.90;99.90;;;;;;4940518;28;20050;-70
2022/11/17 09:17:34;;;;;;;10.05;6.53;;;7.90;99.90;;;;;;4956632;28;20378;-68
2022/11/17 09:20:00;;;;;;;10.02;7.28;;;7.90;99.90;;;;;;4974083;28;20043;-69
2022/11/17 09:22:26;;;;;;;12.30;7.53;;;8.00;99.90;;;;;;4954336;28;20130;-69
2022/11/17 09:24:52;;;;;;;9.63;7.32;;;8.00;99.90;;;;;;4973686;28;20125;-69
2022/11/17 09:27:17;;;;;;;10.02;7.90;;;8.00;99.90;;;;;;4956446;28;20046;-70
2022/11/17 09:29:43;;;;;;;10.98;8.45;;;8.00;99.90;;;;;;4956407;28;20050;-69
2022/11/17 09:32:09;;;;;;;10.05;7.30;;;8.00;99.90;;;;;;4956345;28;20159;-69
2022/11/17 09:34:35;;;;;;;11.60;8.90;;;8.00;99.90;;;;;;4973572;28;20078;-69
2022/11/17 09:37:00;;;;;;;12.60;8.68;;;8.00;99.90;;;;;;4956454;28;20134;-70
2022/11/17 09:39:26;;;;;;;10.73;7.93;;;8.10;99.90;;;;;;4966456;28;20390;-71
2022/11/17 09:41:54;;;;;;;11.73;8.20;;;8.10;99.90;;;;;;4951962;28;20039;-69
2022/11/17 09:44:40;;;;;;;9.68;6.70;;;8.10;99.90;;;;;;4949037;28;20127;-71
2022/11/17 09:47:17;;;;;;;8.90;7.45;;;8.10;99.90;;;;;;4955863;28;20042;-71
2022/11/17 09:50:04;;;;;;;10.40;7.30;;;8.10;99.90;;;;;;4955867;28;20042;-69
2022/11/17 09:52:50;;;;;;;10.23;7.50;;;8.10;99.90;;;;;;4954956;28;20051;-69
2022/11/17 09:55:36;;;;;;;9.75;7.72;;;8.10;99.90;;;;;;4972062;28;20038;-68
2022/11/17 09:58:12;;;;;;;13.25;8.90;;;8.10;99.90;;;;;;4959089;28;20047;-69
2022/11/17 10:00:42;;;;;;;14.07;9.07;;;8.10;99.90;;;;;;4959261;28;20093;-68
2022/11/17 10:03:33;;;;;;;14.20;8.68;;;8.20;99.90;;;;;;4959461;28;20066;-68
2022/11/17 10:06:02;;;;;;;12.38;8.63;;;8.20;99.90;;;;;;4948052;28;20408;-69
2022/11/17 10:08:59;;;;;;;12.27;8.13;;;8.20;99.90;;;;;;4959375;28;20510;-69
2022/11/17 10:11:30;;;;;;;12.55;8.75;;;8.20;99.90;;;;;;4976709;28;20046;-70
2022/11/17 10:14:01;;;;;;;11.18;8.30;;;8.20;99.90;;;;;;4959012;28;20113;-71
2022/11/17 10:16:28;;;;;;;10.32;8.05;;;8.20;99.90;;;;;;4976432;28;20457;-69
2022/11/17 10:18:54;;;;;;;10.98;8.00;;;8.20;99.90;;;;;;4976698;28;21294;-69
2022/11/17 10:21:19;;;;;;;9.55;8.25;;;8.30;99.90;;;;;;4956753;28;20081;-70
2022/11/17 10:23:56;;;;;;;10.07;7.30;;;8.30;99.90;;;;;;4956342;28;20049;-70
2022/11/17 10:26:23;;;;;;;9.60;6.80;;;8.30;99.90;;;;;;4968285;28;20093;-69
2022/11/17 10:29:05;;;;;;;10.05;7.43;;;8.30;99.90;;;;;;4959273;28;20050;-70
2022/11/17 10:31:39;;;;;;;9.02;7.10;;;8.30;99.90;;;;;;4942905;28;20121;-69
2022/11/17 10:34:07;;;;;;;8.05;6.38;;;8.40;99.90;;;;;;4958475;28;20078;-69
2022/11/17 10:36:33;;;;;;;12.27;7.85;;;8.40;99.90;;;;;;4958448;28;20101;-70
2022/11/17 10:38:59;;;;;;;9.85;7.20;;;8.50;99.90;;;;;;4963353;28;20051;-69
2022/11/17 10:41:44;;;;;;;10.02;7.40;;;8.50;99.90;;;;;;4974974;28;20043;-69
2022/11/17 10:44:24;;;;;;;11.13;7.40;;;8.60;99.90;;;;;;4956328;28;20413;-68
2022/11/17 10:47:02;;;;;;;14.00;8.57;;;8.60;99.90;;;;;;4956484;28;20054;-69
2022/11/17 10:49:38;;;;;;;11.85;8.10;;;8.70;99.90;;;;;;4952710;28;20084;-68
2022/11/17 10:52:10;;;;;;;12.32;8.10;;;8.70;99.90;;;;;;4956441;28;20047;-70
2022/11/17 10:54:36;;;;;;;11.82;8.73;;;8.80;99.90;;;;;;4957451;28;20049;-68
2022/11/17 10:57:16;;;;;;;13.93;9.40;;;8.80;99.90;;;;;;4975589;28;20508;-69
2022/11/17 10:59:49;;;;;;;13.13;8.88;;;8.90;99.90;;;;;;4975537;28;20043;-68
2022/11/17 11:02:35;;;;;;;11.20;8.30;;;9.00;99.90;;;;;;4950736;28;20066;-69
2022/11/17 11:05:14;;;;;;;10.73;7.90;;;9.00;99.90;;;;;;4972603;28;20162;-68
2022/11/17 11:07:40;;;;;;;11.43;8.27;;;9.20;99.90;;;;;;4974082;28;20039;-70
2022/11/17 11:10:33;;;;;;;12.00;7.95;;;9.20;99.90;;;;;;4975211;28;20057;-69
2022/11/17 11:13:03;;;;;;;11.77;8.63;;;9.30;99.90;;;;;;4975208;28;20046;-70
2022/11/17 11:15:36;;;;;;;14.65;8.15;;;9.40;99.90;;;;;;4975326;28;20043;-69
2022/11/17 11:18:15;;;;;;;10.63;7.43;;;9.50;99.90;;;;;;4957905;28;20043;-69
2022/11/17 11:20:54;;;;;;;9.88;7.25;;;9.60;99.90;;;;;;4964924;28;20113;-70
2022/11/17 11:23:34;;;;;;;8.87;5.37;;;9.70;99.90;;;;;;4957985;28;20042;-70
2022/11/17 11:26:21;;;;;;;7.95;4.68;;;9.80;99.90;;;;;;4957625;28;20051;-69
2022/11/17 11:29:20;;;;;;;5.45;3.58;;;9.80;99.90;;;;;;4971216;28;20058;-69
2022/11/17 11:31:49;;;;;;;5.60;3.23;;;10.00;99.90;;;;;;4969722;28;20508;-70
2022/11/17 11:34:43;;;;;;;5.03;3.08;;;10.00;99.90;;;;;;4955504;28;20045;-71
2022/11/17 11:37:12;;;;;;;3.97;2.00;;;10.10;99.90;;;;;;4960193;28;20043;-70
2022/11/17 11:39:52;;;;;;;5.97;2.30;;;10.20;99.90;;;;;;4956209;28;20473;-69
2022/11/17 11:42:32;;;;;;;5.80;1.90;;;10.10;99.90;;;;;;4956299;28;20038;-68
2022/11/17 11:45:37;;;;;;;4.22;1.52;;;10.20;99.90;;;;;;4941461;28;20054;-70
2022/11/17 11:48:09;;;;;;;5.38;1.55;;;10.20;99.90;;;;;;4957517;28;20046;-69
2022/11/17 11:50:46;;;;;;;4.93;1.50;;;10.20;99.90;;;;;;4948032;28;20046;-69
2022/11/17 11:53:35;;;;;;;3.15;1.30;;;10.20;99.90;;;;;;4957488;28;20084;-70
2022/11/17 11:56:07;;;;;;;6.25;1.33;;;10.20;99.90;;;;;;4926077;28;20094;-69
2022/11/17 11:58:33;;;;;;;3.47;2.20;;;10.20;99.90;;;;;;4956652;28;20050;-70
2022/11/17 12:01:05;;;;;;;4.95;1.25;;;10.20;99.90;;;;;;4973951;28;20523;-71
2022/11/17 12:04:08;;;;;;;3.30;1.27;;;10.30;99.90;;;;;;4974284;28;20047;-70
2022/11/17 12:06:43;;;;;;;3.97;1.30;;;10.20;99.90;;;;;;4957043;28;20050;-70
2022/11/17 12:09:39;;;;;;;6.95;1.48;;;10.30;99.90;;;;;;4974139;28;20567;-70
2022/11/17 12:12:17;;;;;;;5.60;1.20;;;10.30;99.90;;;;;;4942649;28;20130;-70
2022/11/17 12:15:17;;;;;;;4.32;1.40;;;10.30;99.90;;;;;;4973368;28;20030;-71
2022/11/17 12:17:57;;;;;;;2.92;1.50;;;10.30;99.90;;;;;;4970053;28;20039;-70
2022/11/17 12:20:29;;;;;;;3.53;1.17;;;10.30;99.90;;;;;;4954732;28;20048;-69
2022/11/17 12:23:20;;;;;;;3.42;1.17;;;10.20;99.90;;;;;;4973974;28;20039;-69
2022/11/17 12:25:47;;;;;;;;;;;10.20;99.90;;;;;;4956822;28;20058;-70
2022/11/17 12:28:37;;;;;;;2.67;1.00;;;10.20;99.90;;;;;;4972682;28;19918;-69
2022/11/17 12:31:31;;;;;;;4.07;1.10;;;10.20;99.90;;;;;;4955106;28;20120;-70
2022/11/17 12:34:00;;;;;;;4.40;1.13;;;10.20;99.90;;;;;;4953208;28;20129;-69
2022/11/17 12:36:30;;;;;;;5.50;1.13;;;10.20;99.90;;;;;;4956432;28;20090;-70
2022/11/17 12:38:58;;;;;;;5.30;1.55;;;10.20;99.90;;;;;;4956328;28;20042;-70
2022/11/17 12:41:48;;;;;;;5.63;1.48;;;10.20;99.90;;;;;;4973848;28;20041;-71
2022/11/17 12:44:37;;;;;;;3.58;0.90;;;10.20;99.90;;;;;;4949742;28;20126;-70
2022/11/17 12:47:12;;;;;;;2.58;1.00;;;10.10;99.90;;;;;;4956460;28;20117;-69
2022/11/17 12:49:56;;;;;;;4.07;1.00;;;10.10;99.90;;;;;;4949688;28;20114;-68
2022/11/17 12:52:55;;;;;;;3.25;1.15;;;10.10;99.90;;;;;;4971199;28;20500;-70
2022/11/17 12:55:50;;;;;;;5.63;1.20;;;10.10;99.90;;;;;;4950822;28;20050;-69
2022/11/17 12:58:47;;;;;;;3.55;1.50;;;10.10;99.90;;;;;;4956244;28;20113;-69
2022/11/17 13:01:41;;;;;;;3.70;1.40;;;10.10;99.90;;;;;;4973356;28;20170;-70
2022/11/17 13:04:07;;;;;;;3.92;1.42;;;10.10;99.90;;;;;;4952051;28;20399;-68
2022/11/17 13:06:33;;;;;;;4.05;0.98;;;10.10;99.90;;;;;;4956320;28;20055;-68
2022/11/17 13:09:07;;;;;;;8.63;1.98;;;10.10;99.90;;;;;;4973005;28;20062;-70
2022/11/17 13:11:38;;;;;;;5.03;1.15;;;10.10;99.90;;;;;;4967713;28;20093;-69
2022/11/17 13:14:16;;;;;;;4.35;1.50;;;10.10;99.90;;;;;;4955854;28;20501;-69
2022/11/17 13:16:53;;;;;;;3.65;1.60;;;10.10;99.90;;;;;;4955320;28;20047;-70
2022/11/17 13:19:41;;;;;;;4.32;1.23;;;10.10;99.90;;;;;;4940217;28;20081;-68
2022/11/17 13:22:13;;;;;;;4.82;1.40;;;10.10;99.90;;;;;;4961389;28;20519;-70
2022/11/17 13:24:52;;;;;;;2.47;1.33;;;10.10;99.90;;;;;;4973304;28;20485;-70
2022/11/17 13:27:30;;;;;;;4.43;1.50;;;10.10;99.90;;;;;;4957105;28;20158;-70
2022/11/17 13:30:29;;;;;;;3.00;1.50;;;10.10;99.90;;;;;;4969337;28;20281;-70
2022/11/17 13:33:01;;;;;;;5.25;1.85;;;10.10;99.90;;;;;;4937827;28;20590;-71
2022/11/17 13:35:28;;;;;;;4.85;1.40;;;10.10;99.90;;;;;;4976983;28;20038;-71
2022/11/17 13:38:10;;;;;;;5.63;1.23;;;10.10;99.90;;;;;;4959615;28;20050;-72